Sea Amore — H9OC — position and weather

sailwx.info

Track history (hours):
 
Tides and Currents Weather Stations Pressure Air Temp Water Temp Dewpoint Dewpoint Depression Visibility Wind Speed Wind Dir Waves Ship Positions

Sea Amore

Last reported at 2014-Jul-28 06:33 UTC. Time now 2014-Jul-29 18:56 UTC.
Position N 40°31' E 027°01'.

Length 148 m; draft 9.4 m.

Type: Cargo ship. MMSI: 357019000.

Date/timePositionNaut miles runAvg speedWind from/ knotsBaromVisibWave heightAir tempDewpointWater temp
2014-Jul-28 06:33N 40°31' E 027°01'3510.4
2014-Jul-28 03:09N 40°09' E 026°24'17 8.5
2014-Jul-28 01:13N 40°00' E 026°06'810.3
2014-Jul-28 00:25N 39°56' E 025°57'1111.3
2014-Jul-27 23:28N 39°46' E 025°50'2211.8
2014-Jul-27 21:34N 39°26' E 025°38'3611.7
2014-Jul-27 18:29N 38°54' E 025°16'1112.1
2014-Jul-27 17:33N 38°44' E 025°10'6411.7
2014-Jul-27 12:05N 37°49' E 024°28'611.8
2014-Jul-27 11:33N 37°45' E 024°22'2411.9
2014-Jul-27 09:30N 37°26' E 024°04'2311.7
2014-Jul-27 07:33N 37°07' E 023°47'1311.7
2014-Jul-27 06:25N 36°56' E 023°38'1012.0
2014-Jul-27 05:33N 36°47' E 023°31'1411.7
2014-Jul-27 04:22N 36°35' E 023°22'911.6
2014-Jul-27 03:34N 36°27' E 023°16'39112.2
2014-Jul-25 19:29N 36°28' E 015°10'1212.3
2014-Jul-25 18:33N 36°29' E 014°56'1212.2
2014-Jul-25 17:34N 36°29' E 014°41'1211.9
2014-Jul-25 16:34N 36°31' E 014°26'1212.0
2014-Jul-25 15:33N 36°35' E 014°12'1212.1
2014-Jul-25 14:33N 36°39' E 013°57'1211.8
2014-Jul-25 13:33N 36°42' E 013°43'1212.1
2014-Jul-25 12:34N 36°46' E 013°29'1212.0
2014-Jul-25 11:33N 36°49' E 013°15'1211.9
2014-Jul-25 10:34N 36°53' E 013°01'1211.9
2014-Jul-25 09:33N 36°57' E 012°46'1212.3
2014-Jul-25 08:34N 36°60' E 012°31'1312.6
2014-Jul-25 07:33N 37°04' E 012°17'2712.0
2014-Jul-25 05:20N 37°12' E 011°45'912.1
2014-Jul-25 04:33N 37°15' E 011°33'1711.8
2014-Jul-25 03:08N 37°20' E 011°14'711.6
2014-Jul-25 02:33N 37°23' E 011°06'1211.9
2014-Jul-25 01:33N 37°25' E 010°51'1212.2
2014-Jul-25 00:33N 37°29' E 010°36'1212.3
2014-Jul-24 23:33N 37°32' E 010°21'1312.5
2014-Jul-24 22:32N 37°33' E 010°05'1312.6
2014-Jul-24 21:33N 37°30' E 009°50'1212.4
2014-Jul-24 20:33N 37°26' E 009°36'1211.9
2014-Jul-24 19:33N 37°21' E 009°22'1212.2
2014-Jul-24 18:32N 37°17' E 009°07'1211.9
2014-Jul-24 17:33N 37°13' E 008°53'1211.8
2014-Jul-24 16:32N 37°09' E 008°39'1211.6
2014-Jul-24 15:33N 37°05' E 008°25'1411.6
2014-Jul-24 14:20N 36°60' E 008°09'911.2
2014-Jul-24 13:33N 36°57' E 007°59'  
2014-Jul-21 00:23N 37°17' E 011°47'1112.8
2014-Jul-20 23:33N 37°14' E 011°59'1313.0
2014-Jul-20 22:33N 37°10' E 012°15'1313.0
2014-Jul-20 21:33N 37°06' E 012°31'1313.5
2014-Jul-20 20:33N 37°03' E 012°47'1313.5
2014-Jul-20 19:33N 36°59' E 013°03'1313.4
2014-Jul-20 18:33N 36°55' E 013°19'1313.4
2014-Jul-20 17:33N 36°51' E 013°35'1313.0
2014-Jul-20 16:33N 36°48' E 013°51'1313.3
2014-Jul-20 15:33N 36°44' E 014°07'1313.1
2014-Jul-20 14:33N 36°40' E 014°22'1313.0
2014-Jul-20 13:33N 36°37' E 014°38'1313.1
2014-Jul-20 12:33N 36°36' E 014°54'1313.2
2014-Jul-20 11:33N 36°36' E 015°11'  
Track history (hours):
 
Tides and Currents Weather Stations Pressure Air Temp Water Temp Dewpoint Dewpoint Depression Visibility Wind Speed Wind Dir Waves Ship Positions

Sea Amore

Last reported at 2014-Jul-28 06:33 UTC. Time now 2014-Jul-29 18:56 UTC.
Position N 40°31' E 027°01'.

Length 148 m; draft 9.4 m.

Type: Cargo ship. MMSI: 357019000.

Date/timePositionNaut miles runAvg speedWind from/ knotsBaromVisibWave heightAir tempDewpointWater temp
2014-Jul-28 06:33N 40°31' E 027°01'3510.4
2014-Jul-28 03:09N 40°09' E 026°24'17 8.5
2014-Jul-28 01:13N 40°00' E 026°06'810.3
2014-Jul-28 00:25N 39°56' E 025°57'1111.3
2014-Jul-27 23:28N 39°46' E 025°50'2211.8
2014-Jul-27 21:34N 39°26' E 025°38'3611.7
2014-Jul-27 18:29N 38°54' E 025°16'1112.1
2014-Jul-27 17:33N 38°44' E 025°10'6411.7
2014-Jul-27 12:05N 37°49' E 024°28'611.8
2014-Jul-27 11:33N 37°45' E 024°22'2411.9
2014-Jul-27 09:30N 37°26' E 024°04'2311.7
2014-Jul-27 07:33N 37°07' E 023°47'1311.7
2014-Jul-27 06:25N 36°56' E 023°38'1012.0
2014-Jul-27 05:33N 36°47' E 023°31'1411.7
2014-Jul-27 04:22N 36°35' E 023°22'911.6
2014-Jul-27 03:34N 36°27' E 023°16'39112.2
2014-Jul-25 19:29N 36°28' E 015°10'1212.3
2014-Jul-25 18:33N 36°29' E 014°56'1212.2
2014-Jul-25 17:34N 36°29' E 014°41'1211.9
2014-Jul-25 16:34N 36°31' E 014°26'1212.0
2014-Jul-25 15:33N 36°35' E 014°12'1212.1
2014-Jul-25 14:33N 36°39' E 013°57'1211.8
2014-Jul-25 13:33N 36°42' E 013°43'1212.1
2014-Jul-25 12:34N 36°46' E 013°29'1212.0
2014-Jul-25 11:33N 36°49' E 013°15'1211.9
2014-Jul-25 10:34N 36°53' E 013°01'1211.9
2014-Jul-25 09:33N 36°57' E 012°46'1212.3
2014-Jul-25 08:34N 36°60' E 012°31'1312.6
2014-Jul-25 07:33N 37°04' E 012°17'2712.0
2014-Jul-25 05:20N 37°12' E 011°45'912.1
2014-Jul-25 04:33N 37°15' E 011°33'1711.8
2014-Jul-25 03:08N 37°20' E 011°14'711.6
2014-Jul-25 02:33N 37°23' E 011°06'1211.9
2014-Jul-25 01:33N 37°25' E 010°51'1212.2
2014-Jul-25 00:33N 37°29' E 010°36'1212.3
2014-Jul-24 23:33N 37°32' E 010°21'1312.5
2014-Jul-24 22:32N 37°33' E 010°05'1312.6
2014-Jul-24 21:33N 37°30' E 009°50'1212.4
2014-Jul-24 20:33N 37°26' E 009°36'1211.9
2014-Jul-24 19:33N 37°21' E 009°22'1212.2
2014-Jul-24 18:32N 37°17' E 009°07'1211.9
2014-Jul-24 17:33N 37°13' E 008°53'1211.8
2014-Jul-24 16:32N 37°09' E 008°39'1211.6
2014-Jul-24 15:33N 37°05' E 008°25'1411.6
2014-Jul-24 14:20N 36°60' E 008°09'911.2
2014-Jul-24 13:33N 36°57' E 007°59'  
2014-Jul-21 00:23N 37°17' E 011°47'1112.8
2014-Jul-20 23:33N 37°14' E 011°59'1313.0
2014-Jul-20 22:33N 37°10' E 012°15'1313.0
2014-Jul-20 21:33N 37°06' E 012°31'1313.5
2014-Jul-20 20:33N 37°03' E 012°47'1313.5
2014-Jul-20 19:33N 36°59' E 013°03'1313.4
2014-Jul-20 18:33N 36°55' E 013°19'1313.4
2014-Jul-20 17:33N 36°51' E 013°35'1313.0
2014-Jul-20 16:33N 36°48' E 013°51'1313.3
2014-Jul-20 15:33N 36°44' E 014°07'1313.1
2014-Jul-20 14:33N 36°40' E 014°22'1313.0
2014-Jul-20 13:33N 36°37' E 014°38'1313.1
2014-Jul-20 12:33N 36°36' E 014°54'1313.2
2014-Jul-20 11:33N 36°36' E 015°11'  

Dump ship's entire track history